Petros Papagiannopoulos

Recruteur - AEK
14 Nov 2027
Dimanche
Processus

Personnalité

Adaptabilité (10) Ambition (14) Controverse (17) Loyauté (4) Pression (4) Professionnalisme (9) Sportivité (1) Tempérament (16)

Profil

Style d'entraînement Démocratique
Diplôme National B
Détermination 14
Gestion des joueurs 13
Motivation 7
Discipline 15
Satisfaction professionnelle
94%
Fatigue
0%
Rôle Recruteur
Salaire 64.3K p/s
Contrat 14.03.2029

Performance

Comportement Bon
Efficacité de l'entraînement
47%
Développement des joueurs
75%
Prévention des blessures
30%
Mise en place tactique
45%

Suivi en cours

111
Joueur Club Statut Capacité Confiance Observé Dernière observation Dernier vote
Facundo Balatti Penarol Actif 100 / 108 40% 3 28.08.2027 -
Kenan Busuladžić Halmstad Actif 116 / 122 40% 1 28.08.2027 -
Afriyie Sulemana Hasaacas Actif 101 / 103 40% 1 28.08.2027 -
Nazareno Roselli Defensa y Justicia Actif 114 / 117 40% 2 27.08.2027 -
Mads Bomholt Rosenborg Actif 112 / 116 40% 1 27.08.2027 -
Drew Baiera New York City Actif 90 / 107 40% 1 27.08.2027 -
Mbekezeli Mbokazi Chicago Fire Actif 123 / 133 40% 4 26.08.2027 -
Jonathan Norbye Haugesund Actif 104 / 112 40% 1 26.08.2027 -
Luka Vušković Brighton Actif 145 / 153 40% 1 26.08.2027 -
Pyry Mentu HJK Actif 99 / 115 40% 1 23.08.2027 -
Yaroslav Matyukhin Alashkert Actif 104 / 108 40% 1 23.08.2027 -
Mattia Puzone Siracusa Actif 103 / 108 40% 2 18.08.2027 -
Jon Esenga IF Elfsborg Actif 94 / 101 40% 1 18.08.2027 -
Bence Szakos Aris Actif 96 / 101 40% 1 18.08.2027 -
Sascha Britschgi Fiorentina Actif 124 / 130 40% 2 14.08.2027 -
Lucas Velásquez Huachipato Actif 92 / 98 40% 2 14.08.2027 -
Isaiah Dada-Mascoll Cultural Leonesa Actif 100 / 106 40% 1 14.08.2027 -
Wilmar Borja La Equidad Actif 100 / 107 40% 2 12.08.2027 -
Adrian Skogmar Malmo FF Actif 119 / 125 40% 1 10.08.2027 -
Nnamdi Obafemi Remo Stars Actif 96 / 107 40% 1 10.08.2027 -
Joe Knight Stevenage Actif 103 / 111 40% 1 09.08.2027 -
Mattia Mannini Juve Stabia Actif 116 / 122 40% 2 05.08.2027 -
Lucas Jetten Cambuur Actif 119 / 121 40% 1 05.08.2027 -
Vasco Santos Oliveirense Actif 97 / 98 40% 1 05.08.2027 -
Jose Rodriguez La Equidad Actif 97 / 109 40% 1 04.08.2027 -
Ismaël Baouf Cambuur Actif 119 / 129 40% 1 04.08.2027 -
Simone Kosijer Triestina Actif 102 / 102 40% 1 27.07.2027 -
Jonathan Bland Barnsley Actif 105 / 109 40% 1 27.07.2027 -
Mats Egbring Heerenveen Actif 102 / 111 40% 1 27.07.2027 -
Jacen Russell-Rowe Toulouse FC Actif 120 / 120 40% 2 24.07.2027 -
Otto Stange Hamburger SV Actif 120 / 126 40% 1 24.07.2027 -
Bautista Tomatis Racing Actif 114 / 109 40% 1 24.07.2027 -
Harvey Blair Portsmouth Actif 123 / 121 40% 2 20.07.2027 -
Josh Coburn Millwall Actif 119 / 121 40% 1 20.07.2027 -
Rocco Vata Watford Actif 126 / 130 40% 1 19.07.2027 -
Miles Leaburn Charlton Athletic Actif 124 / 124 40% 1 19.07.2027 -
Moctar Diop KAA Gent Actif 123 / 124 40% 1 16.07.2027 -
Myron van Brederode KV Mechelen Actif 123 / 125 40% 1 14.07.2027 -
Dom Ballard Leyton Orient Actif 121 / 124 40% 2 08.07.2027 -
Stiven Shpendi Empoli Actif 125 / 121 40% 1 08.07.2027 -
Iwan Morgan Grimsby Town Actif 111 / 117 40% 1 05.07.2027 -
Tammer Kumar West Bromwich Albion Actif 121 / 125 40% 1 05.07.2027 -
Fabrizio Cavegn Bristol Rovers Actif 115 / 113 40% 1 05.07.2027 -
Fally Mayulu Arouca Actif 122 / 120 40% 1 03.07.2027 -
Agustín Venezia Iquique Actif 116 / 118 40% 1 03.07.2027 -
Gonçalo Ribeiro Porto Actif 98 / 104 40% 2 01.07.2027 -
Alex Kouto Horio Pisano Nagoya Grampus Actif 119 / 132 40% 1 01.07.2027 -
David Romero Parma Actif 125 / 130 40% 1 30.06.2027 -
José Neto Alverca Actif 113 / 126 40% 1 29.06.2027 -
Toni Tamarit Alverca Actif 115 / 127 40% 1 29.06.2027 -
Muhammadyusuf Sobirov Bunyodkor Actif 110 / 113 40% 1 26.06.2027 -
Luka Kolar Rudar Velenje Actif 108 / 115 40% 1 26.06.2027 -
Mauricio Amaro Atlanta United FC Actif 131 / 128 40% 3 24.06.2027 -
Teo Rodríguez Pagano San Lorenzo Actif 110 / 120 40% 1 24.06.2027 -
Benedek Erdélyi Debrecen Actif 101 / 104 40% 2 22.06.2027 -
Enrique Maza Tigre Actif 105 / 111 40% 2 22.06.2027 -
Tommy Setford Arsenal Actif 122 / 129 40% 2 21.06.2027 -
Omar Mabkhout Al Ahli Actif 113 / 117 40% 2 20.06.2027 -
Ignacio Roldán Lanús Actif 89 / 99 40% 1 19.06.2027 -
Kevin Martínez Danubio Actif 95 / 104 40% 1 18.06.2027 -
Silas Huber Zurich Actif 119 / 128 40% 1 18.06.2027 -
Mikhail Ryadno Baltika Actif 98 / 106 40% 2 11.06.2027 -
Axel Afonso Atlético Tucumán Actif 89 / 96 40% 1 09.06.2027 -
Mandla Mothiba Free State Stars Actif 90 / 102 40% 1 07.06.2027 -
Rafik el Arguioui Utrecht Actif 108 / 116 40% 1 07.06.2027 -
Marco Oroná Antofagasta Actif 95 / 106 40% 1 03.06.2027 -
Gelson Martins Olympiacos Perdu 130 / 133 83% 1 01.06.2027 -
Elie N'Gatta Sochaux Actif 94 / 98 40% 1 01.06.2027 -
Vinicius Tobias Shakhtar Actif 129 / 134 40% 1 30.01.2027 -
Juraj Badelj Aris Actif 116 / 119 40% 1 30.01.2027 -
Will Fish Cardiff City Actif 120 / 122 40% 1 30.01.2027 -
Kamogelo Sebelebele Orlando Pirates Actif 107 / 123 40% 1 29.01.2027 -
Brad Hills Stockport County Actif 119 / 120 40% 1 29.01.2027 -
Arsenii Batahov Trabzonspor Actif 131 / 130 40% 1 29.01.2027 -
Yerson Chacón AE Kition Actif 116 / 115 40% 1 28.01.2027 -
Tobías Cervera SonderjyskE Actif 123 / 112 40% 1 28.01.2027 -
Peter Federico Gornik Zabrze Actif 126 / 124 40% 1 28.01.2027 -
Sergey Pinyaev Lokomotiv Moscow Actif 123 / 126 40% 2 27.01.2027 -
Bae Jun-Ho Stoke City Actif 127 / 126 40% 1 27.01.2027 -
Marlon Gomes Shakhtar Actif 133 / 139 40% 1 26.01.2027 -
Teden Mengi Luton Town Actif 125 / 124 40% 1 26.01.2027 -
Nikola Stanković Cukaricki Actif 114 / 110 40% 1 26.01.2027 -
Kelvin Flórez Udinese Actif 111 / 116 40% 1 24.01.2027 -
Rodrigo Huescas FC Copenhagen Actif 142 / 136 40% 1 22.01.2027 -
Romano Floriani Mussolini Avellino Actif 125 / 126 40% 1 22.01.2027 -
Ethan Pye Stockport County Actif 117 / 116 40% 1 22.01.2027 -
Terry Devlin Portsmouth Actif 119 / 124 40% 1 19.01.2027 -
Morgan Manyama SuperSport United Actif 117 / 124 40% 1 19.01.2027 -
George Earthy Reading Actif 119 / 123 40% 2 18.01.2027 -
Malik Mothersille Stockport County Actif 116 / 114 40% 1 18.01.2027 -
Marvin Kaleta Rotherham United Actif 105 / 107 40% 2 17.01.2027 -
Bongani Mokotjo Ajax Cape Town Actif 110 / 116 40% 1 17.01.2027 -
Xavier Simons Bolton Wanderers Actif 120 / 119 40% 1 17.01.2027 -
Brodie Spencer Oxford United Actif 120 / 126 40% 1 16.01.2027 -
Mateja Milovanović Partizan Actif 118 / 122 40% 1 16.01.2027 -
Mduduzi Shabalala Kaizer Chiefs Actif 114 / 110 40% 1 12.01.2027 -
Cian Ashford Cardiff City Actif 119 / 118 40% 1 12.01.2027 -
Williams Furman Ajax Cape Town Actif 101 / 113 40% 1 10.01.2027 -
Marcus Ifill Bromley Actif 107 / 109 40% 1 10.01.2027 -
Mamadou Coulibaly Al Jazira Actif 127 / 121 40% 1 09.01.2027 -
Ryan Trevitt AFC Wimbledon Actif 110 / 120 40% 1 09.01.2027 -
Pedro Zenit Actif 131 / 141 40% 1 02.01.2027 -
Dro Paris Saint-Germain Actif 119 / 139 40% 1 01.01.2027 -
Gilberto Mora AC Milan Actif 129 / 136 40% 1 01.01.2027 -
Konrad Michalak Panetolikos Actif 114 / 114 30% 1 / 1m 23.09.2026 -
Davinchi Getafe Actif 113 / 125 40% 1 31.08.2026 Plus d'infos
Adam Aznou Everton Actif 120 / 129 40% 1 31.08.2026 Plus d'infos
Law McCabe Middlesbrough Actif 103 / 116 40% 1 19.08.2026 -
Eddie Salcedo OFI Actif 115 / 119 83% 1 17.08.2026 Approuver
Jozhua Vertrouwd Rayo Vallecano Actif 119 / 124 40% 1 10.08.2026 -
Mamadou Sané Aris Actif 93 / 94 40% 1 03.08.2026 -